Flight Track Log - Related Links

Times and Time Zones

All times are in EST time to prevent confusion due to time zone crossing. See the OPT438 flight status page for this flight to view local times or setup timezone preferences in your user account.

Time Position Orientation Groundspeed Altitude Reporting Facility
EST Latitude Longitude Course Direction KTS MPH feet Rate Location/Type
Sun 10:48:51 AM 41.5617 -81.5531 90° East 207 238 3,000  Level Cleveland Center
Sun 10:49:22 AM 41.5936 -81.5419 15° North 244 281 3,500 2,032 Climbing Cleveland Center
Sun 10:49:53 AM 41.6242 -81.5278 19° North 228 262 5,100 3,226 Climbing Cleveland Center
Sun 10:50:55 AM 41.6864 -81.4825 29° Northeast 255 293 8,500 3,317 Climbing Cleveland Center
Sun 10:51:56 AM 41.6983 -81.3708 82° East 301 346 11,900 3,463 Climbing Cleveland Center
Sun 10:52:58 AM 41.7058 -81.2483 85° East 320 368 15,600 3,387 Climbing Cleveland Center
Sun 10:54:00 AM 41.8833 -81.0556 90° East  Level FlightAware Approximate
Sun 10:54:00 AM 41.7142 -81.1167 85° East 348 400 18,900  Level Cleveland Center
Sun 10:55:01 AM 41.7233 -80.9786 85° East 363 418 21,800 2,585 Climbing Cleveland Center
Sun 10:56:03 AM 41.7322 -80.8256 85° East 406 467 24,200 2,341 Climbing Cleveland Center
Sun 10:57:04 AM 41.7408 -80.6619 86° East 432 497 26,600 2,293 Climbing Cleveland Center
Sun 10:58:06 AM 41.7508 -80.4953 85° East 441 507 28,900 2,129 Climbing Cleveland Center
Sun 10:59:08 AM 41.7594 -80.3267 86° East 448 516 31,000 1,024 Climbing Cleveland Center
Sun 11:00:09 AM 41.7689 -80.1536 86° East 458 527 31,000  Level Cleveland Center
Sun 11:01:11 AM 41.7789 -79.9528 86° East 461 531 31,000  Level Cleveland Center
Sun 11:02:13 AM 41.7881 -79.7800 86° East 460 529 31,000  Level Cleveland Center
Sun 11:03:14 AM 41.7950 -79.6181 87° East 453 521 31,000  Level Cleveland Center
Sun 11:04:16 AM 41.8047 -79.4322 86° East 451 519 31,000  Level Cleveland Center
Sun 11:05:17 AM 41.8117 -79.2603 87° East 451 519 31,000  Level Cleveland Center
Sun 11:06:19 AM 41.8181 -79.0939 87° East 450 518 31,000  Level Cleveland Center
Sun 11:07:20 AM 41.8172 -78.9269 90° East 451 519 31,000  Level Cleveland Center
Sun 11:08:22 AM 41.8053 -78.7664 96° East 449 517 31,000  Level Cleveland Center
Sun 11:09:23 AM 41.7947 -78.6017 95° East 447 514 31,000  Level Cleveland Center
Sun 11:10:25 AM 41.7822 -78.4356 96° East 447 514 31,000  Level Cleveland Center
Sun 11:11:26 AM 41.7694 -78.2708 96° East 447 514 31,000  Level Cleveland Center
Sun 11:12:28 AM 41.7542 -78.0739 96° East 446 513 31,000  Level Cleveland Center
Sun 11:13:29 AM 41.7414 -77.9094 96° East 446 513 31,000  Level Cleveland Center
Sun 11:14:06 AM 41.7333 -77.8119 96° East 448 516 31,000  Level New York Center
Sun 11:15:06 AM 41.7200 -77.6492 96° East 448 516 31,000  Level New York Center
Sun 11:16:06 AM 41.7067 -77.4839 96° East 448 516 31,000  Level New York Center
Sun 11:17:06 AM 41.6931 -77.3158 96° East 448 516 31,000  Level New York Center
Sun 11:18:06 AM 41.6772 -77.1475 97° East 448 516 31,000  Level New York Center
Sun 11:19:06 AM 41.6372 -76.9967 109° East 443 510 31,000  Level New York Center
Sun 11:20:06 AM 41.5953 -76.8428 110° East 438 504 31,000  Level New York Center
Sun 11:21:06 AM 41.5617 -76.7233 111° Southeast 433 498 31,000  Level New York Center
Sun 11:22:06 AM 41.5158 -76.5558 110° East 438 504 31,000  Level New York Center
Sun 11:23:06 AM 41.4731 -76.4053 111° Southeast 438 504 31,000 -600 Level New York Center
Sun 11:24:06 AM 41.4281 -76.2550 112° Southeast 438 504 29,800 -2,250 Descending New York Center
Sun 11:25:06 AM 41.3892 -76.1025 109° East 438 504 26,500 -3,200 Descending New York Center
Sun 11:26:06 AM 41.3439 -75.9497 111° Southeast 432 497 23,400 -2,950 Descending New York Center
Sun 11:27:06 AM 41.3061 -75.8086 110° East 410 472 20,600 -2,700 Descending New York Center
Sun 11:28:06 AM 41.2717 -75.6928 112° Southeast 395 455 18,000 -1,900 Descending New York Center
Sun 11:29:06 AM 41.2311 -75.5631 113° Southeast 371 427 16,800 -1,050 Descending New York Center
Sun 11:30:06 AM 41.1919 -75.4472 114° Southeast 347 399 15,900 -1,600 Descending New York Center
Sun 11:31:06 AM 41.1508 -75.3258 114° Southeast 347 399 13,600 -2,250 Descending New York Center
Sun 11:32:06 AM 41.1192 -75.2300 114° Southeast 334 384 11,400 -2,150 Descending New York Center
Sun 11:33:06 AM 41.0836 -75.1231 114° Southeast 326 375 9,300 -2,300 Descending New York Center
Sun 11:34:06 AM 41.0458 -75.0106 114° Southeast 310 357 6,800 -1,650 Descending New York Center
Sun 11:35:06 AM 41.0414 -74.9003 93° East 291 335 6,000 -750 Descending New York Center
Sun 11:36:06 AM 41.0425 -74.8069 89° East 286 329 5,300 -950 Descending New York Center
Sun 11:37:06 AM 41.0400 -74.7022 92° East 271 312 4,100 -700 Descending New York Center
Sun 11:38:06 AM 41.0367 -74.6083 93° East 255 293 3,900 -400 Descending New York Center
Sun 11:39:06 AM 41.0353 -74.5231 91° East 245 282 3,300 -400 Descending New York Center
Sun 11:40:06 AM 41.0339 -74.4378 91° East 234 269 3,100 -104 Descending New York Center
Sun 11:41:01 AM 41.0333 -74.3667 91° East 219 252 3,100 -52 Level New York TRACON
Sun 11:42:02 AM 41.0333 -74.2833 90° East 221 254 3,000 -149 Descending New York TRACON
Sun 11:43:02 AM 41.0333 -74.2000 90° East 211 243 2,800 -432 Descending New York TRACON
Sun 11:44:07 AM 41.0167 -74.1167 105° East 204 235 2,100 -336 Descending New York TRACON
Sun 11:45:07 AM 40.9833 -74.0667 131° Southeast 200 230 2,100 -48 Level New York TRACON
Sun 11:46:13 AM 40.9333 -74.0500 166° South 169 194 2,000 -545 Descending New York TRACON
Sun 11:47:08 AM 40.9000 -74.0500 180° South 137 158 1,000 -1,091 Descending New York TRACON
Sun 11:49:00 AM 40.8500 -74.0500 122° Southeast  Level FlightAware Approximate
Sun 11:56:00 AM 40.8501 -74.0608 122° Southeast  Level Estimated
Sun 11:57:00 AM 40.8501 -74.0608 122° Southeast  Level Estimated

Login

Don't have an account? Register now (free) for customized features, flight alerts, and more!